createdAt,value
2022-12-15T00:02:17.097Z,-5.14
2022-12-15T00:05:02.116Z,-5.13
2022-12-15T00:07:47.141Z,-5.17
2022-12-15T00:10:32.362Z,-5.18
2022-12-15T00:13:17.243Z,-5.22
2022-12-15T00:16:05.624Z,-5.18
2022-12-15T00:18:51.039Z,-5.21
2022-12-15T00:21:36.285Z,-5.26
2022-12-15T00:24:21.433Z,-5.36
2022-12-15T00:27:06.253Z,-5.37
2022-12-15T00:29:51.485Z,-5.43
2022-12-15T00:32:36.734Z,-5.51
2022-12-15T00:35:22.161Z,-5.60
2022-12-15T00:38:08.451Z,-5.63
2022-12-15T00:40:35.326Z,-5.64
2022-12-15T00:43:01.945Z,-5.69
2022-12-15T00:45:48.499Z,-5.71
2022-12-15T00:48:15.503Z,-5.77
2022-12-15T00:50:54.188Z,-5.78
2022-12-15T00:53:41.191Z,-5.82
2022-12-15T00:56:27.430Z,-5.78
2022-12-15T00:59:13.364Z,-5.78
2022-12-15T01:01:58.709Z,-5.84
2022-12-15T01:04:44.351Z,-5.84
2022-12-15T01:07:29.913Z,-5.83
2022-12-15T01:10:15.222Z,-5.86
2022-12-15T01:13:00.271Z,-5.86
2022-12-15T01:15:45.722Z,-5.86
2022-12-15T01:18:31.176Z,-5.86
2022-12-15T01:21:02.889Z,-5.86
2022-12-15T01:23:31.404Z,-5.84
2022-12-15T01:25:58.200Z,-5.82
2022-12-15T01:28:25.143Z,-5.81
2022-12-15T01:30:52.278Z,-5.80
2022-12-15T01:33:20.515Z,-5.78
2022-12-15T01:36:01.695Z,-5.76
2022-12-15T01:38:29.336Z,-5.75
2022-12-15T01:41:02.452Z,-5.77
2022-12-15T01:43:35.069Z,-5.75
2022-12-15T01:46:03.231Z,-5.75
2022-12-15T01:48:34.066Z,-5.77
2022-12-15T01:51:06.555Z,-5.75
2022-12-15T01:53:37.804Z,-5.73
2022-12-15T01:56:06.406Z,-5.72
2022-12-15T01:58:33.868Z,-5.70
2022-12-15T02:01:02.248Z,-5.69
2022-12-15T02:03:30.552Z,-5.69
2022-12-15T02:06:00.875Z,-5.68
2022-12-15T02:08:28.711Z,-5.74
2022-12-15T02:11:29.428Z,-5.73
2022-12-15T02:14:03.271Z,-5.70
2022-12-15T02:17:00.948Z,-5.73
2022-12-15T02:19:50.657Z,-5.72
2022-12-15T02:22:38.983Z,-5.73
2022-12-15T02:25:23.700Z,-5.75
2022-12-15T02:28:15.576Z,-5.75
2022-12-15T02:31:25.169Z,-5.76
2022-12-15T02:33:57.926Z,-5.75
2022-12-15T02:36:32.941Z,-5.73
2022-12-15T02:38:59.602Z,-5.73
2022-12-15T02:41:39.283Z,-5.73
2022-12-15T02:44:12.470Z,-5.75
2022-12-15T02:47:13.085Z,-5.73
2022-12-15T02:50:24.436Z,-5.71
2022-12-15T02:53:25.746Z,-5.71
2022-12-15T02:56:18.013Z,-5.68
2022-12-15T02:58:52.947Z,-5.67
2022-12-15T03:01:34.368Z,-5.62
2022-12-15T03:04:03.915Z,-5.63
2022-12-15T03:06:31.938Z,-5.60
2022-12-15T03:08:58.570Z,-5.57
2022-12-15T03:11:25.427Z,-5.55
2022-12-15T03:13:53.981Z,-5.55
2022-12-15T03:16:21.084Z,-5.53
2022-12-15T03:18:47.842Z,-5.52
2022-12-15T03:21:14.633Z,-5.52
2022-12-15T03:23:41.280Z,-5.52
2022-12-15T03:26:09.252Z,-5.49
2022-12-15T03:28:35.966Z,-5.48
2022-12-15T03:31:02.793Z,-5.47
2022-12-15T03:33:30.793Z,-5.46
2022-12-15T03:35:57.578Z,-5.43
2022-12-15T03:38:24.257Z,-5.40
2022-12-15T03:40:50.926Z,-5.31
2022-12-15T03:43:17.531Z,-5.33
2022-12-15T03:45:44.125Z,-5.36
2022-12-15T03:48:10.816Z,-5.35
2022-12-15T03:50:37.606Z,-5.33
2022-12-15T03:53:04.992Z,-5.30
2022-12-15T03:55:31.787Z,-5.29
2022-12-15T03:57:59.396Z,-5.28
2022-12-15T04:00:26.846Z,-5.25
2022-12-15T04:02:55.027Z,-5.25
2022-12-15T04:05:26.321Z,-5.23
2022-12-15T04:07:53.949Z,-5.19
2022-12-15T04:10:20.671Z,-5.19
2022-12-15T04:12:47.266Z,-5.17
2022-12-15T04:15:13.945Z,-5.15
2022-12-15T04:17:42.213Z,-5.13
2022-12-15T04:20:09.271Z,-5.12
2022-12-15T04:22:41.541Z,-5.16
2022-12-15T04:25:29.274Z,-5.15
2022-12-15T04:28:15.203Z,-5.11
2022-12-15T04:31:05.668Z,-5.09
2022-12-15T04:33:51.395Z,-5.05
2022-12-15T04:36:36.826Z,-5.05
2022-12-15T04:39:24.331Z,-5.04
2022-12-15T04:42:10.711Z,-5.00
2022-12-15T04:44:55.867Z,-5.00
2022-12-15T04:47:40.945Z,-5.00
2022-12-15T04:50:26.626Z,-5.00
2022-12-15T04:53:12.205Z,-4.97
2022-12-15T04:55:57.699Z,-4.96
2022-12-15T04:58:42.826Z,-4.93
2022-12-15T05:12:00.392Z,-4.91
2022-12-15T05:14:45.620Z,-4.88
2022-12-15T05:17:41.118Z,-4.85
2022-12-15T05:20:27.137Z,-4.81
2022-12-15T05:23:13.634Z,-4.79
2022-12-15T05:25:59.086Z,-4.75
2022-12-15T05:28:44.400Z,-4.74
2022-12-15T05:31:30.758Z,-4.70
2022-12-15T05:34:04.891Z,-4.66
2022-12-15T05:36:32.253Z,-4.61
2022-12-15T05:38:58.850Z,-4.60
2022-12-15T05:41:25.434Z,-4.57
2022-12-15T05:43:52.154Z,-4.53
2022-12-15T05:46:19.918Z,-4.50
2022-12-15T05:48:46.768Z,-4.48
2022-12-15T05:51:14.115Z,-4.45
2022-12-15T05:53:42.417Z,-4.42
2022-12-15T05:56:14.585Z,-4.38
2022-12-15T05:58:45.486Z,-4.35
2022-12-15T06:01:15.174Z,-4.32
2022-12-15T06:03:43.123Z,-4.31
2022-12-15T06:06:12.558Z,-4.26
2022-12-15T06:08:41.359Z,-4.27
2022-12-15T06:11:11.187Z,-4.23
2022-12-15T06:13:37.755Z,-4.20
2022-12-15T06:16:05.844Z,-4.19
2022-12-15T06:18:37.989Z,-4.19
2022-12-15T06:21:07.484Z,-4.19
2022-12-15T06:23:35.129Z,-4.18
2022-12-15T06:26:23.829Z,-4.17
2022-12-15T06:28:51.249Z,-4.15
2022-12-15T06:31:22.788Z,-4.16
2022-12-15T06:33:52.547Z,-4.15
2022-12-15T06:36:26.315Z,-4.15
2022-12-15T06:38:53.141Z,-4.14
2022-12-15T06:41:22.229Z,-4.11
2022-12-15T06:43:54.192Z,-4.10
2022-12-15T06:46:21.308Z,-4.11
2022-12-15T06:48:48.490Z,-4.08
2022-12-15T06:51:17.621Z,-4.07
2022-12-15T06:53:54.413Z,-4.07
2022-12-15T06:56:30.682Z,-4.06
2022-12-15T06:59:00.262Z,-4.06
2022-12-15T07:01:27.840Z,-4.05
2022-12-15T07:03:55.505Z,-4.04
2022-12-15T07:06:22.795Z,-4.03
2022-12-15T07:08:52.615Z,-4.01
2022-12-15T07:11:21.221Z,-4.02
2022-12-15T07:13:52.333Z,-4.00
2022-12-15T07:16:20.416Z,-3.98
2022-12-15T07:18:47.180Z,-3.97
2022-12-15T07:21:14.191Z,-3.93
2022-12-15T07:23:54.239Z,-3.92
2022-12-15T07:26:21.963Z,-3.89
2022-12-15T07:28:48.569Z,-3.87
2022-12-15T07:31:15.756Z,-3.83
2022-12-15T07:33:43.146Z,-3.80
2022-12-15T07:36:09.979Z,-3.82
2022-12-15T07:38:37.111Z,-3.79
2022-12-15T07:41:09.175Z,-3.79
2022-12-15T07:43:36.615Z,-3.78
2022-12-15T07:46:05.278Z,-3.76
2022-12-15T07:48:36.987Z,-3.74
2022-12-15T07:51:12.292Z,-3.75
2022-12-15T07:53:44.450Z,-3.72
2022-12-15T07:56:11.043Z,-3.69
2022-12-15T07:58:38.723Z,-3.66
2022-12-15T08:01:07.499Z,-3.69
2022-12-15T08:03:36.448Z,-3.71
2022-12-15T08:06:05.641Z,-3.71
2022-12-15T08:08:34.109Z,-3.70
2022-12-15T08:11:09.669Z,-3.71
2022-12-15T08:14:01.917Z,-3.66
2022-12-15T08:16:24.271Z,-3.64
2022-12-15T08:18:50.954Z,-3.64
2022-12-15T08:21:17.942Z,-3.62
2022-12-15T08:23:44.646Z,-3.59
2022-12-15T08:26:13.755Z,-3.56
2022-12-15T08:28:41.188Z,-3.58
2022-12-15T08:31:14.041Z,-3.53
2022-12-15T08:33:41.309Z,-3.55
2022-12-15T08:36:10.461Z,-3.51
2022-12-15T08:38:39.323Z,-3.39
2022-12-15T08:41:13.260Z,-3.36
2022-12-15T08:43:47.569Z,-3.27
2022-12-15T08:46:17.119Z,-3.22
2022-12-15T08:48:45.250Z,-3.13
2022-12-15T08:51:12.327Z,-3.09
2022-12-15T08:53:39.247Z,-3.01
2022-12-15T08:56:08.256Z,-2.93
2022-12-15T08:58:34.945Z,-2.82
2022-12-15T09:01:02.826Z,-2.66
2022-12-15T09:03:30.408Z,-2.47
2022-12-15T09:06:02.426Z,-2.39
2022-12-15T09:08:31.116Z,-2.33
2022-12-15T09:10:58.892Z,-2.29
2022-12-15T09:13:26.362Z,-2.39
2022-12-15T09:16:12.472Z,-2.34
2022-12-15T09:18:42.523Z,-2.20
2022-12-15T09:21:14.252Z,-2.05
2022-12-15T09:23:41.976Z,-2.02
2022-12-15T09:26:11.216Z,-1.87
2022-12-15T09:28:38.463Z,-1.73
2022-12-15T09:31:10.659Z,-1.67
2022-12-15T09:33:38.166Z,-1.62
2022-12-15T09:36:05.427Z,-1.61
2022-12-15T09:38:34.475Z,-1.50
2022-12-15T09:41:08.661Z,-1.66
2022-12-15T09:43:37.156Z,-1.05
2022-12-15T09:46:21.130Z,-0.28
2022-12-15T09:48:49.832Z,-0.03
2022-12-15T09:51:19.123Z,-0.02
2022-12-15T09:53:55.868Z,-0.36
2022-12-15T09:56:49.938Z,-0.71
2022-12-15T09:59:35.484Z,0.04
2022-12-15T10:02:53.076Z,-0.20
2022-12-15T10:06:07.313Z,0.29
2022-12-15T10:08:32.625Z,0.85
2022-12-15T10:11:02.703Z,1.35
2022-12-15T10:13:45.092Z,1.83
2022-12-15T10:16:26.897Z,2.46
2022-12-15T10:19:07.176Z,2.92
2022-12-15T10:21:34.257Z,2.31
2022-12-15T10:24:26.819Z,1.43
2022-12-15T10:27:17.410Z,1.25
2022-12-15T10:29:56.397Z,0.92
2022-12-15T10:32:42.906Z,0.42
2022-12-15T10:35:23.322Z,-0.44
2022-12-15T10:37:50.134Z,-0.77
2022-12-15T10:40:42.280Z,-0.47
2022-12-15T10:43:24.486Z,-0.52
2022-12-15T10:46:00.928Z,-0.33
2022-12-15T10:48:27.638Z,-0.55
2022-12-15T10:51:20.717Z,-0.59
2022-12-15T10:53:50.452Z,-0.78
2022-12-15T10:57:00.295Z,-0.80
2022-12-15T10:59:36.580Z,-0.45
2022-12-15T11:02:34.532Z,-0.23
2022-12-15T11:05:02.833Z,-0.54
2022-12-15T11:07:41.756Z,-0.78
2022-12-15T11:10:17.632Z,-0.49
2022-12-15T11:12:58.233Z,0.70
2022-12-15T11:15:25.514Z,1.26
2022-12-15T11:18:29.421Z,1.85
2022-12-15T11:21:15.667Z,1.51
2022-12-15T11:24:01.520Z,1.61
2022-12-15T11:26:39.014Z,2.47
2022-12-15T11:29:24.147Z,1.95
2022-12-15T11:31:54.521Z,1.91
2022-12-15T11:34:26.001Z,2.07
2022-12-15T11:37:19.599Z,1.84
2022-12-15T11:40:01.865Z,1.66
2022-12-15T11:42:54.118Z,1.38
2022-12-15T11:45:30.414Z,1.50
2022-12-15T11:48:22.150Z,1.36
2022-12-15T11:50:57.893Z,1.12
2022-12-15T11:53:31.215Z,0.81
2022-12-15T11:56:23.977Z,0.36
2022-12-15T11:59:27.299Z,0.28
2022-12-15T12:02:18.906Z,-0.18
2022-12-15T12:05:24.436Z,-0.92
2022-12-15T12:08:13.619Z,-1.17
2022-12-15T12:11:02.448Z,-1.02
2022-12-15T12:13:35.095Z,-1.47
2022-12-15T12:16:23.530Z,-1.36
2022-12-15T12:19:01.545Z,-1.52
2022-12-15T12:21:44.481Z,-1.34
2022-12-15T12:24:20.180Z,-1.44
2022-12-15T12:26:52.270Z,-1.34
2022-12-15T12:29:28.308Z,-1.63
2022-12-15T12:32:02.243Z,-1.79
2022-12-15T12:35:31.369Z,-1.77
2022-12-15T12:38:03.138Z,-1.83
2022-12-15T12:40:46.011Z,-1.91
2022-12-15T12:43:30.861Z,-1.77
2022-12-15T12:46:03.448Z,-1.60
2022-12-15T12:48:37.884Z,-1.34
2022-12-15T12:51:28.171Z,-1.07
2022-12-15T12:53:55.908Z,-1.11
2022-12-15T12:56:43.712Z,-1.30
2022-12-15T12:59:29.955Z,-1.32
2022-12-15T13:01:58.290Z,-1.27
2022-12-15T13:04:33.939Z,-1.32
2022-12-15T13:07:25.998Z,-1.34
2022-12-15T13:10:12.781Z,-1.21
2022-12-15T13:12:53.522Z,-1.25
2022-12-15T13:15:49.115Z,-1.15
2022-12-15T13:18:17.648Z,-1.15
2022-12-15T13:20:48.891Z,-1.10
2022-12-15T13:23:20.139Z,-1.10
2022-12-15T13:26:18.314Z,-0.89
2022-12-15T13:28:48.901Z,-0.78
2022-12-15T13:31:22.970Z,-0.73
2022-12-15T13:33:49.647Z,-0.89
2022-12-15T13:36:38.177Z,-0.95
2022-12-15T13:39:27.943Z,-1.07
2022-12-15T13:44:52.763Z,-1.09
2022-12-15T13:47:19.280Z,-1.11
2022-12-15T13:50:01.402Z,-1.17
2022-12-15T13:53:17.278Z,-1.30
2022-12-15T13:55:36.434Z,-1.36
2022-12-15T13:58:17.655Z,-1.40
2022-12-15T14:01:01.527Z,-1.48
2022-12-15T14:03:28.384Z,-1.62
2022-12-15T14:06:00.687Z,-1.72
2022-12-15T14:08:30.683Z,-1.86
2022-12-15T14:11:06.958Z,-1.92
2022-12-15T14:13:46.934Z,-2.11
2022-12-15T14:16:21.688Z,-2.27
2022-12-15T14:19:11.514Z,-2.42
2022-12-15T14:21:38.409Z,-2.56
2022-12-15T14:27:08.882Z,-2.84
2022-12-15T14:29:35.642Z,-2.98
2022-12-15T14:32:02.728Z,-3.10
2022-12-15T14:34:33.283Z,-3.24
2022-12-15T14:37:03.585Z,-3.29
2022-12-15T14:39:40.089Z,-3.37
2022-12-15T14:42:08.062Z,-3.49
2022-12-15T14:44:40.533Z,-3.50
2022-12-15T14:47:27.132Z,-3.57
2022-12-15T14:49:55.978Z,-3.66
2022-12-15T14:52:28.234Z,-3.68
2022-12-15T14:55:03.562Z,-3.73
2022-12-15T14:57:44.158Z,-3.86
2022-12-15T15:00:28.873Z,-3.94
2022-12-15T15:03:16.587Z,-2.70
2022-12-15T15:05:55.519Z,-4.17
2022-12-15T15:08:30.238Z,-4.28
2022-12-15T15:11:00.607Z,-4.41
2022-12-15T15:13:44.724Z,-4.56
2022-12-15T15:16:17.377Z,-4.66
2022-12-15T15:18:48.412Z,-4.75
2022-12-15T15:21:22.457Z,-4.84
2022-12-15T15:24:22.636Z,-4.88
2022-12-15T15:26:49.352Z,-4.90
2022-12-15T15:29:49.107Z,-4.91
2022-12-15T15:32:21.452Z,-4.99
2022-12-15T15:34:49.297Z,-5.11
2022-12-15T15:37:24.620Z,-5.17
2022-12-15T15:39:55.449Z,-5.27
2022-12-15T15:42:26.529Z,-5.34
2022-12-15T15:44:56.109Z,-5.46
2022-12-15T15:47:26.630Z,-5.28
2022-12-15T15:49:55.135Z,-5.01
2022-12-15T15:52:22.959Z,-4.86
2022-12-15T15:54:50.654Z,-4.95
2022-12-15T15:57:18.844Z,-5.11
2022-12-15T15:59:47.123Z,-5.23
2022-12-15T16:02:15.114Z,-5.35
2022-12-15T16:04:42.905Z,-5.40
2022-12-15T16:07:25.324Z,-5.40
2022-12-15T16:09:53.736Z,-5.54
2022-12-15T16:12:31.582Z,-5.64
2022-12-15T16:14:58.436Z,-5.74
2022-12-15T16:17:25.601Z,-5.84
2022-12-15T16:19:52.180Z,-5.94
2022-12-15T16:22:21.357Z,-6.03
2022-12-15T16:24:48.523Z,-6.03
2022-12-15T16:27:15.735Z,-6.08
2022-12-15T16:29:42.805Z,-6.11
2022-12-15T16:32:12.045Z,-6.22
2022-12-15T16:34:38.827Z,-6.32
2022-12-15T16:37:05.918Z,-6.46
2022-12-15T16:39:34.499Z,-6.40
2022-12-15T16:42:02.133Z,-6.21
2022-12-15T16:44:29.750Z,-6.00
2022-12-15T16:46:57.616Z,-5.76
2022-12-15T16:49:24.364Z,-5.62
2022-12-15T16:51:53.562Z,-5.56
2022-12-15T16:54:26.521Z,-5.49
2022-12-15T16:56:54.947Z,-5.44
2022-12-15T16:59:33.441Z,-5.43
2022-12-15T17:02:01.415Z,-5.45
2022-12-15T17:04:29.236Z,-5.48
2022-12-15T17:06:55.903Z,-5.49
2022-12-15T17:09:25.243Z,-5.51
2022-12-15T17:11:52.335Z,-5.55
2022-12-15T17:14:19.429Z,-5.50
2022-12-15T17:16:48.062Z,-5.46
2022-12-15T17:19:19.344Z,-5.44
2022-12-15T17:21:50.787Z,-5.43
2022-12-15T17:24:20.303Z,-5.67
2022-12-15T17:26:47.521Z,-5.85
2022-12-15T17:29:21.911Z,-5.99
2022-12-15T17:31:48.571Z,-6.13
2022-12-15T17:34:32.255Z,-6.18
2022-12-15T17:37:01.149Z,-6.21
2022-12-15T17:39:28.285Z,-6.20
2022-12-15T17:42:00.631Z,-6.25
2022-12-15T17:44:34.420Z,-6.34
2022-12-15T17:47:03.881Z,-6.40
2022-12-15T17:49:35.440Z,-6.41
2022-12-15T17:52:16.751Z,-6.43
2022-12-15T17:54:44.546Z,-6.50
2022-12-15T17:57:12.769Z,-6.53
2022-12-15T17:59:39.648Z,-6.55
2022-12-15T18:02:06.492Z,-6.59
2022-12-15T18:04:33.216Z,-6.64
2022-12-15T18:07:02.447Z,-6.67
2022-12-15T18:09:30.060Z,-6.70
2022-12-15T18:11:56.725Z,-6.74
2022-12-15T18:14:23.408Z,-6.87
2022-12-15T18:16:51.572Z,-7.02
2022-12-15T18:19:18.181Z,-7.01
2022-12-15T18:21:44.883Z,-7.01
2022-12-15T18:24:17.237Z,-7.12
2022-12-15T18:26:44.142Z,-7.17
2022-12-15T18:29:18.132Z,-7.19
2022-12-15T18:31:47.121Z,-7.25
2022-12-15T18:34:17.526Z,-7.23
2022-12-15T18:36:44.441Z,-7.27
2022-12-15T18:39:30.322Z,-7.27
2022-12-15T18:41:57.409Z,-7.28
2022-12-15T18:44:31.396Z,-7.32
2022-12-15T18:46:58.109Z,-7.38
2022-12-15T18:49:24.905Z,-7.47
2022-12-15T18:51:51.730Z,-7.48
2022-12-15T18:54:21.207Z,-7.58
2022-12-15T18:56:48.071Z,-7.66
2022-12-15T18:59:19.230Z,-7.50
2022-12-15T19:01:47.975Z,-7.50
2022-12-15T19:04:15.599Z,-7.65
2022-12-15T19:06:43.265Z,-7.75
2022-12-15T19:09:19.653Z,-7.79
2022-12-15T19:12:06.468Z,-7.68
2022-12-15T19:14:42.000Z,-7.68
2022-12-15T19:17:33.285Z,-7.79
2022-12-15T19:20:23.638Z,-7.95
2022-12-15T19:22:51.419Z,-8.03
2022-12-15T19:25:26.556Z,-8.10
2022-12-15T19:28:00.562Z,-8.17
2022-12-15T19:30:30.288Z,-8.12
2022-12-15T19:32:58.008Z,-8.12
2022-12-15T19:35:27.451Z,-8.15
2022-12-15T19:37:56.873Z,-8.22
2022-12-15T19:40:30.391Z,-8.21
2022-12-15T19:42:58.442Z,-8.14
2022-12-15T19:45:34.593Z,-8.08
2022-12-15T19:48:01.743Z,-8.00
2022-12-15T19:50:36.410Z,-8.06
2022-12-15T19:53:06.943Z,-8.07
2022-12-15T19:55:35.920Z,-8.04
2022-12-15T19:58:27.845Z,-8.04
2022-12-15T20:00:57.269Z,-8.06
2022-12-15T20:03:24.349Z,-7.97
2022-12-15T20:05:52.594Z,-7.93
2022-12-15T20:08:24.352Z,-7.93
2022-12-15T20:10:53.977Z,-7.96
2022-12-15T20:13:21.835Z,-7.89
2022-12-15T20:15:48.927Z,-7.92
2022-12-15T20:18:15.607Z,-7.93
2022-12-15T20:20:45.608Z,-7.90
2022-12-15T20:23:29.469Z,-7.89
2022-12-15T20:25:56.615Z,-7.78
2022-12-15T20:28:26.813Z,-7.76
2022-12-15T20:30:54.526Z,-7.81
2022-12-15T20:33:23.094Z,-7.85
2022-12-15T20:35:51.046Z,-7.84
2022-12-15T20:38:26.494Z,-7.78
2022-12-15T20:40:55.832Z,-7.82
2022-12-15T20:43:24.192Z,-7.75
2022-12-15T20:46:00.878Z,-7.77
2022-12-15T20:48:30.092Z,-7.80
2022-12-15T20:50:56.972Z,-7.85
2022-12-15T20:53:29.839Z,-7.84
2022-12-15T20:55:57.222Z,-7.84
2022-12-15T20:58:28.353Z,-7.84
2022-12-15T21:00:59.352Z,-7.84
2022-12-15T21:03:33.606Z,-7.89
2022-12-15T21:06:01.820Z,-7.90
2022-12-15T21:08:30.916Z,-7.86
2022-12-15T21:11:03.830Z,-7.82
2022-12-15T21:13:33.523Z,-7.81
2022-12-15T21:16:01.108Z,-7.90
2022-12-15T21:21:20.800Z,-7.93
2022-12-15T21:23:48.111Z,-7.90
2022-12-15T21:26:19.782Z,-7.93
2022-12-15T21:28:48.760Z,-7.90
2022-12-15T21:31:18.492Z,-7.86
2022-12-15T21:33:47.218Z,-7.87
2022-12-15T21:36:21.491Z,-7.80
2022-12-15T21:38:51.821Z,-7.71
2022-12-15T21:41:23.242Z,-7.71
2022-12-15T21:43:50.712Z,-7.74
2022-12-15T21:46:28.965Z,-7.74
2022-12-15T21:49:14.769Z,-7.74
2022-12-15T21:51:52.179Z,-7.74
2022-12-15T21:54:30.365Z,-7.68
2022-12-15T21:56:59.042Z,-7.71
2022-12-15T21:59:32.206Z,-7.71
2022-12-15T22:02:15.537Z,-7.65
2022-12-15T22:04:42.209Z,-7.65
2022-12-15T22:07:15.913Z,-7.71
2022-12-15T22:09:42.510Z,-7.70
2022-12-15T22:12:20.299Z,-7.71
2022-12-15T22:14:50.559Z,-7.68
2022-12-15T22:17:22.443Z,-7.69
2022-12-15T22:19:49.136Z,-7.65
2022-12-15T22:22:19.746Z,-7.63
2022-12-15T22:24:46.394Z,-7.59
2022-12-15T22:27:21.478Z,-7.59
2022-12-15T22:29:49.370Z,-7.58
2022-12-15T22:32:19.334Z,-7.56
2022-12-15T22:34:45.949Z,-7.55
2022-12-15T22:37:12.585Z,-7.56
2022-12-15T22:39:39.857Z,-7.54
2022-12-15T22:42:06.498Z,-7.53
2022-12-15T22:44:37.299Z,-7.55
2022-12-15T22:47:04.822Z,-7.51
2022-12-15T22:49:38.177Z,-7.50
2022-12-15T22:52:30.901Z,-7.46
2022-12-15T22:54:58.883Z,-7.46
2022-12-15T22:57:27.259Z,-7.45
2022-12-15T23:00:05.814Z,-7.45
2022-12-15T23:02:36.182Z,-7.44
2022-12-15T23:05:04.920Z,-7.41
2022-12-15T23:07:31.673Z,-7.38
2022-12-15T23:10:17.049Z,-7.37
2022-12-15T23:12:43.913Z,-7.33
2022-12-15T23:15:29.567Z,-7.32
2022-12-15T23:17:56.174Z,-7.31
2022-12-15T23:20:22.817Z,-7.29
2022-12-15T23:22:49.508Z,-7.27
2022-12-15T23:25:16.349Z,-7.27
2022-12-15T23:27:43.050Z,-7.25
2022-12-15T23:30:11.097Z,-7.23
2022-12-15T23:32:38.925Z,-7.20
2022-12-15T23:35:06.474Z,-7.18
2022-12-15T23:37:33.782Z,-7.17
2022-12-15T23:40:00.441Z,-7.14
2022-12-15T23:42:27.539Z,-7.12
2022-12-15T23:44:55.568Z,-7.12
2022-12-15T23:47:22.291Z,-7.09
2022-12-15T23:49:48.912Z,-7.05
2022-12-15T23:52:17.956Z,-7.04
2022-12-15T23:54:45.018Z,-7.01
2022-12-15T23:57:12.031Z,-6.97
2022-12-15T23:59:38.746Z,-6.97
